Tuesday, January 22, 2019, 3:59 PM EST
Back to Local

KLNS, Lancaster Airport

Location: Lititz, PA, United States Lat: 40.117
Local Time: 3:59 PM EST (20:59 GMT) Lon: -76.3
Time Zone: US/Eastern Elev: 403 ft

Show me the last for .
Show Coded

Time T Td Feel RH Dir Speed Gust Alt SLP Vis Weather Sky Remarks
2019-01-22 14:53 30 6 26 35 Variable 3 - 30.60 30.61 10 CLR None
2019-01-22 13:53 28 6 22 38 270° 6 - 30.62 30.64 10 CLR None
2019-01-22 12:53 26 6 19 41 280° 6 - 30.65 30.67 10 CLR 6-hr Min Temp (1pm): 10.0°F
6-hr Max Temp (1pm): 27.0°F
2019-01-22 11:53 24 5 16 43 300° 7 - 30.68 30.70 10 CLR None
2019-01-22 10:53 21 4 15 46 Variable 5 - 30.70 30.72 10 CLR None
2019-01-22 09:53 18 3 10 51 300° 6 - 30.71 30.73 10 CLR None
2019-01-22 08:53 16 4 6 58 310° 7 - 30.69 30.71 10 CLR None
2019-01-22 07:53 13 4 4 66 320° 6 - 30.68 30.70 10 CLR None
2019-01-22 06:53 11 2 1 66 260° 6 - 30.66 30.68 10 CLR 6-hr Min Temp (7am): 10.0°F
6-hr Max Temp (7am): 14.0°F
2019-01-22 05:53 11 2 1 66 310° 6 - 30.62 30.65 10 CLR None
2019-01-22 04:53 12 2 3 63 290° 6 - 30.62 30.65 10 CLR None
2019-01-22 03:53 13 2 1 60 290° 9 - 30.61 30.63 10 CLR None
2019-01-22 02:53 13 1 1 58 270° 9 - 30.59 30.60 10 CLR None
2019-01-22 01:53 13 0 -1 55 280° 12 - 30.55 30.57 10 CLR None
2019-01-22 00:53 14 -1 0 50 310° 12 - 30.52 30.54 10 CLR 6-hr Min Temp (1am): 14.0°F
6-hr Max Temp (1am): 16.0°F
2019-01-21 23:53 14 -2 0 48 310° 13 - 30.52 30.54 10 CLR 24-hr Min Temp (12am): 8.1°F
24-hr Max Temp (12am): 19.0°F
2019-01-21 22:53 15 -3 0 43 310° 15 - 30.51 30.54 10 CLR None
2019-01-21 21:53 15 -3 2 43 300° 12 - 30.49 30.51 10 CLR None
2019-01-21 20:53 16 -4 1 40 310° 15 - 30.46 30.48 10 CLR None
2019-01-21 19:53 16 -4 -3 40 320° 18 25 30.43 30.45 10 CLR None
2019-01-21 18:53 16 -4 -2 40 310° 17 24 30.39 30.42 10 CLR Peak wind: 31 mph (27 kts) from 310° at 12 min
6-hr Min Temp (7pm): 16.0°F
6-hr Max Temp (7pm): 19.0°F
2019-01-21 17:53 17 -4 -2 38 300° 22 26 30.36 30.38 10 CLR Peak wind: 32 mph (28 kts) from 290° at 14 min
2019-01-21 16:53 18 -4 2 36 300° 18 - 30.32 30.34 10 CLR Peak wind: 32 mph (28 kts) from 310° at 26 min

Support USWX by starting your Amazon purchase here.